sensor_id;sensor_type;location;lat;lon;timestamp;P1;durP1;ratioP1;P2;durP2;ratioP2
21183;SDS011;18176;49.502;11.754;2024-02-23T00:03:51;0.47;;;0.47;;
21183;SDS011;18176;49.502;11.754;2024-02-23T00:08:12;0.90;;;0.67;;
21183;SDS011;18176;49.502;11.754;2024-02-23T00:12:33;1.50;;;0.67;;
21183;SDS011;18176;49.502;11.754;2024-02-23T00:16:56;1.00;;;0.50;;
21183;SDS011;18176;49.502;11.754;2024-02-23T00:21:18;1.17;;;0.50;;
21183;SDS011;18176;49.502;11.754;2024-02-23T00:25:39;1.00;;;0.30;;
21183;SDS011;18176;49.502;11.754;2024-02-23T00:29:59;0.73;;;0.60;;
21183;SDS011;18176;49.502;11.754;2024-02-23T00:34:23;1.90;;;0.60;;
21183;SDS011;18176;49.502;11.754;2024-02-23T00:38:43;0.73;;;0.40;;
21183;SDS011;18176;49.502;11.754;2024-02-23T00:43:05;1.63;;;0.50;;
21183;SDS011;18176;49.502;11.754;2024-02-23T00:47:26;0.97;;;0.47;;
21183;SDS011;18176;49.502;11.754;2024-02-23T00:51:50;0.50;;;0.40;;
21183;SDS011;18176;49.502;11.754;2024-02-23T00:56:11;1.17;;;0.40;;
21183;SDS011;18176;49.502;11.754;2024-02-23T01:00:32;1.63;;;0.47;;
21183;SDS011;18176;49.502;11.754;2024-02-23T01:04:52;0.40;;;0.30;;
21183;SDS011;18176;49.502;11.754;2024-02-23T01:09:18;1.43;;;0.40;;
21183;SDS011;18176;49.502;11.754;2024-02-23T01:13:39;0.77;;;0.27;;
21183;SDS011;18176;49.502;11.754;2024-02-23T01:18:00;0.43;;;0.30;;
21183;SDS011;18176;49.502;11.754;2024-02-23T01:22:21;0.30;;;0.20;;
21183;SDS011;18176;49.502;11.754;2024-02-23T01:26:44;0.20;;;0.20;;
21183;SDS011;18176;49.502;11.754;2024-02-23T01:31:04;0.67;;;0.10;;
21183;SDS011;18176;49.502;11.754;2024-02-23T01:35:28;0.37;;;0.30;;
21183;SDS011;18176;49.502;11.754;2024-02-23T01:39:49;0.20;;;0.20;;
21183;SDS011;18176;49.502;11.754;2024-02-23T01:44:12;0.10;;;0.10;;
21183;SDS011;18176;49.502;11.754;2024-02-23T01:48:34;1.03;;;0.20;;
21183;SDS011;18176;49.502;11.754;2024-02-23T01:52:56;0.33;;;0.30;;
21183;SDS011;18176;49.502;11.754;2024-02-23T01:57:20;1.50;;;0.20;;
21183;SDS011;18176;49.502;11.754;2024-02-23T02:02:05;0.63;;;0.20;;
21183;SDS011;18176;49.502;11.754;2024-02-23T02:06:26;0.53;;;0.30;;
21183;SDS011;18176;49.502;11.754;2024-02-23T02:10:46;0.50;;;0.20;;
21183;SDS011;18176;49.502;11.754;2024-02-23T02:15:08;0.50;;;0.30;;
21183;SDS011;18176;49.502;11.754;2024-02-23T02:19:31;2.70;;;0.20;;
21183;SDS011;18176;49.502;11.754;2024-02-23T02:23:52;0.33;;;0.20;;
21183;SDS011;18176;49.502;11.754;2024-02-23T02:28:13;0.43;;;0.20;;
21183;SDS011;18176;49.502;11.754;2024-02-23T02:32:35;0.20;;;0.20;;
21183;SDS011;18176;49.502;11.754;2024-02-23T02:36:59;0.63;;;0.30;;
21183;SDS011;18176;49.502;11.754;2024-02-23T02:41:20;2.40;;;0.70;;
21183;SDS011;18176;49.502;11.754;2024-02-23T02:45:47;1.80;;;0.20;;
21183;SDS011;18176;49.502;11.754;2024-02-23T02:50:08;0.87;;;0.40;;
21183;SDS011;18176;49.502;11.754;2024-02-23T02:54:32;1.10;;;0.30;;
21183;SDS011;18176;49.502;11.754;2024-02-23T02:58:52;1.37;;;0.20;;
21183;SDS011;18176;49.502;11.754;2024-02-23T03:03:13;0.43;;;0.30;;
21183;SDS011;18176;49.502;11.754;2024-02-23T03:07:34;1.70;;;0.30;;
21183;SDS011;18176;49.502;11.754;2024-02-23T03:11:57;0.40;;;0.20;;
21183;SDS011;18176;49.502;11.754;2024-02-23T03:16:18;1.00;;;0.20;;
21183;SDS011;18176;49.502;11.754;2024-02-23T03:20:42;1.97;;;0.60;;
21183;SDS011;18176;49.502;11.754;2024-02-23T03:25:05;1.67;;;0.40;;
21183;SDS011;18176;49.502;11.754;2024-02-23T03:29:30;1.43;;;0.40;;
21183;SDS011;18176;49.502;11.754;2024-02-23T03:33:51;0.80;;;0.43;;
21183;SDS011;18176;49.502;11.754;2024-02-23T03:38:11;0.87;;;0.33;;
21183;SDS011;18176;49.502;11.754;2024-02-23T03:42:32;0.47;;;0.30;;
21183;SDS011;18176;49.502;11.754;2024-02-23T03:46:55;2.67;;;0.63;;
21183;SDS011;18176;49.502;11.754;2024-02-23T03:51:16;0.87;;;0.40;;
21183;SDS011;18176;49.502;11.754;2024-02-23T03:55:37;1.37;;;0.33;;
21183;SDS011;18176;49.502;11.754;2024-02-23T03:59:57;1.93;;;0.60;;
21183;SDS011;18176;49.502;11.754;2024-02-23T04:04:30;2.53;;;0.53;;
21183;SDS011;18176;49.502;11.754;2024-02-23T04:08:50;5.73;;;0.50;;
21183;SDS011;18176;49.502;11.754;2024-02-23T04:13:11;2.30;;;0.63;;
21183;SDS011;18176;49.502;11.754;2024-02-23T04:17:34;3.07;;;0.70;;
21183;SDS011;18176;49.502;11.754;2024-02-23T04:21:58;1.20;;;0.40;;
21183;SDS011;18176;49.502;11.754;2024-02-23T04:26:18;3.43;;;0.70;;
21183;SDS011;18176;49.502;11.754;2024-02-23T04:30:39;3.03;;;0.70;;
21183;SDS011;18176;49.502;11.754;2024-02-23T04:35:00;3.13;;;0.60;;
21183;SDS011;18176;49.502;11.754;2024-02-23T04:39:24;2.07;;;0.50;;
21183;SDS011;18176;49.502;11.754;2024-02-23T04:43:44;3.23;;;0.77;;
21183;SDS011;18176;49.502;11.754;2024-02-23T04:48:06;4.93;;;0.70;;
21183;SDS011;18176;49.502;11.754;2024-02-23T04:52:27;2.77;;;0.80;;
21183;SDS011;18176;49.502;11.754;2024-02-23T04:56:50;3.83;;;0.60;;
21183;SDS011;18176;49.502;11.754;2024-02-23T05:01:11;3.03;;;0.50;;
21183;SDS011;18176;49.502;11.754;2024-02-23T05:05:32;3.17;;;1.60;;
21183;SDS011;18176;49.502;11.754;2024-02-23T05:09:55;3.03;;;0.80;;
21183;SDS011;18176;49.502;11.754;2024-02-23T05:14:18;3.83;;;1.00;;
21183;SDS011;18176;49.502;11.754;2024-02-23T05:18:39;1.67;;;0.93;;
21183;SDS011;18176;49.502;11.754;2024-02-23T05:23:00;3.83;;;0.70;;
21183;SDS011;18176;49.502;11.754;2024-02-23T05:27:21;3.63;;;1.00;;
21183;SDS011;18176;49.502;11.754;2024-02-23T05:31:47;2.57;;;0.70;;
21183;SDS011;18176;49.502;11.754;2024-02-23T05:36:09;3.10;;;0.90;;
21183;SDS011;18176;49.502;11.754;2024-02-23T05:40:30;5.87;;;1.07;;
21183;SDS011;18176;49.502;11.754;2024-02-23T05:44:51;4.33;;;1.07;;
21183;SDS011;18176;49.502;11.754;2024-02-23T05:49:14;5.80;;;0.70;;
21183;SDS011;18176;49.502;11.754;2024-02-23T05:53:35;3.00;;;0.80;;
21183;SDS011;18176;49.502;11.754;2024-02-23T05:57:56;8.37;;;1.40;;
21183;SDS011;18176;49.502;11.754;2024-02-23T06:02:16;4.00;;;0.97;;
21183;SDS011;18176;49.502;11.754;2024-02-23T06:06:40;2.40;;;1.00;;
21183;SDS011;18176;49.502;11.754;2024-02-23T06:11:02;3.43;;;0.83;;
21183;SDS011;18176;49.502;11.754;2024-02-23T06:15:24;5.13;;;1.10;;
21183;SDS011;18176;49.502;11.754;2024-02-23T06:19:44;5.30;;;1.20;;
21183;SDS011;18176;49.502;11.754;2024-02-23T06:24:07;5.67;;;1.20;;
21183;SDS011;18176;49.502;11.754;2024-02-23T06:28:28;3.73;;;1.00;;
21183;SDS011;18176;49.502;11.754;2024-02-23T06:32:49;3.80;;;1.17;;
21183;SDS011;18176;49.502;11.754;2024-02-23T06:37:10;4.47;;;1.30;;
21183;SDS011;18176;49.502;11.754;2024-02-23T06:41:34;4.53;;;1.20;;
21183;SDS011;18176;49.502;11.754;2024-02-23T06:45:55;2.60;;;1.10;;
21183;SDS011;18176;49.502;11.754;2024-02-23T06:50:17;4.10;;;0.90;;
21183;SDS011;18176;49.502;11.754;2024-02-23T06:54:38;2.90;;;0.83;;
21183;SDS011;18176;49.502;11.754;2024-02-23T06:59:02;3.53;;;0.90;;
21183;SDS011;18176;49.502;11.754;2024-02-23T07:03:22;3.27;;;1.20;;
21183;SDS011;18176;49.502;11.754;2024-02-23T07:07:43;4.30;;;0.80;;
21183;SDS011;18176;49.502;11.754;2024-02-23T07:12:05;5.00;;;0.80;;
21183;SDS011;18176;49.502;11.754;2024-02-23T07:16:31;1.60;;;0.73;;
21183;SDS011;18176;49.502;11.754;2024-02-23T07:20:52;2.30;;;0.90;;
21183;SDS011;18176;49.502;11.754;2024-02-23T07:25:15;5.20;;;2.03;;
21183;SDS011;18176;49.502;11.754;2024-02-23T07:29:37;4.63;;;0.97;;
21183;SDS011;18176;49.502;11.754;2024-02-23T07:34:01;5.60;;;1.00;;
21183;SDS011;18176;49.502;11.754;2024-02-23T07:38:22;3.67;;;1.17;;
21183;SDS011;18176;49.502;11.754;2024-02-23T07:42:42;4.07;;;1.00;;
21183;SDS011;18176;49.502;11.754;2024-02-23T07:47:03;4.07;;;1.23;;
21183;SDS011;18176;49.502;11.754;2024-02-23T07:51:27;3.07;;;1.50;;
21183;SDS011;18176;49.502;11.754;2024-02-23T07:55:48;4.20;;;0.87;;
21183;SDS011;18176;49.502;11.754;2024-02-23T08:00:10;4.77;;;1.43;;
21183;SDS011;18176;49.502;11.754;2024-02-23T08:04:32;3.37;;;1.10;;
21183;SDS011;18176;49.502;11.754;2024-02-23T08:08:56;5.53;;;1.20;;
21183;SDS011;18176;49.502;11.754;2024-02-23T08:13:17;3.87;;;1.00;;
21183;SDS011;18176;49.502;11.754;2024-02-23T08:17:38;2.90;;;0.97;;
21183;SDS011;18176;49.502;11.754;2024-02-23T08:21:59;3.67;;;1.20;;
21183;SDS011;18176;49.502;11.754;2024-02-23T08:26:22;5.20;;;1.10;;
21183;SDS011;18176;49.502;11.754;2024-02-23T08:30:43;2.83;;;1.00;;
21183;SDS011;18176;49.502;11.754;2024-02-23T08:35:04;4.50;;;1.10;;
21183;SDS011;18176;49.502;11.754;2024-02-23T08:39:26;3.87;;;1.10;;
21183;SDS011;18176;49.502;11.754;2024-02-23T08:43:49;1.73;;;0.80;;
21183;SDS011;18176;49.502;11.754;2024-02-23T08:48:12;2.47;;;0.87;;
21183;SDS011;18176;49.502;11.754;2024-02-23T08:52:33;3.13;;;0.80;;
21183;SDS011;18176;49.502;11.754;2024-02-23T08:56:54;2.90;;;0.77;;
21183;SDS011;18176;49.502;11.754;2024-02-23T09:01:17;1.60;;;0.77;;
21183;SDS011;18176;49.502;11.754;2024-02-23T09:05:38;2.90;;;1.13;;
21183;SDS011;18176;49.502;11.754;2024-02-23T09:09:59;2.73;;;1.23;;
21183;SDS011;18176;49.502;11.754;2024-02-23T09:14:21;3.03;;;1.00;;
21183;SDS011;18176;49.502;11.754;2024-02-23T09:18:45;5.80;;;1.40;;
21183;SDS011;18176;49.502;11.754;2024-02-23T09:23:05;5.03;;;1.20;;
21183;SDS011;18176;49.502;11.754;2024-02-23T09:27:26;3.10;;;1.40;;
21183;SDS011;18176;49.502;11.754;2024-02-23T09:31:47;5.10;;;0.90;;
21183;SDS011;18176;49.502;11.754;2024-02-23T09:36:10;2.87;;;1.03;;
21183;SDS011;18176;49.502;11.754;2024-02-23T09:40:31;2.70;;;1.00;;
21183;SDS011;18176;49.502;11.754;2024-02-23T09:44:53;2.70;;;1.17;;
21183;SDS011;18176;49.502;11.754;2024-02-23T09:49:18;1.57;;;0.90;;
21183;SDS011;18176;49.502;11.754;2024-02-23T09:53:43;5.33;;;1.40;;
21183;SDS011;18176;49.502;11.754;2024-02-23T09:58:05;3.80;;;1.27;;
21183;SDS011;18176;49.502;11.754;2024-02-23T10:02:28;2.73;;;1.20;;
21183;SDS011;18176;49.502;11.754;2024-02-23T10:06:49;2.47;;;1.10;;
21183;SDS011;18176;49.502;11.754;2024-02-23T10:11:13;5.13;;;1.30;;
21183;SDS011;18176;49.502;11.754;2024-02-23T10:15:37;4.57;;;1.80;;
21183;SDS011;18176;49.502;11.754;2024-02-23T10:20:18;3.03;;;1.20;;
21183;SDS011;18176;49.502;11.754;2024-02-23T10:24:39;3.57;;;1.10;;
21183;SDS011;18176;49.502;11.754;2024-02-23T10:29:04;6.97;;;2.00;;
21183;SDS011;18176;49.502;11.754;2024-02-23T10:33:28;6.10;;;1.93;;
21183;SDS011;18176;49.502;11.754;2024-02-23T10:37:51;3.73;;;1.20;;
21183;SDS011;18176;49.502;11.754;2024-02-23T10:42:14;2.47;;;0.80;;
21183;SDS011;18176;49.502;11.754;2024-02-23T10:46:44;4.73;;;1.00;;
21183;SDS011;18176;49.502;11.754;2024-02-23T10:51:06;2.90;;;0.93;;
21183;SDS011;18176;49.502;11.754;2024-02-23T10:55:31;2.07;;;1.00;;
21183;SDS011;18176;49.502;11.754;2024-02-23T10:59:56;6.63;;;1.00;;
21183;SDS011;18176;49.502;11.754;2024-02-23T11:04:19;3.00;;;0.97;;
21183;SDS011;18176;49.502;11.754;2024-02-23T11:08:42;2.77;;;0.80;;
21183;SDS011;18176;49.502;11.754;2024-02-23T11:13:07;2.60;;;0.77;;
21183;SDS011;18176;49.502;11.754;2024-02-23T11:17:29;5.50;;;1.40;;
21183;SDS011;18176;49.502;11.754;2024-02-23T11:21:54;4.67;;;1.77;;
21183;SDS011;18176;49.502;11.754;2024-02-23T11:26:19;3.90;;;0.80;;
21183;SDS011;18176;49.502;11.754;2024-02-23T11:30:43;2.63;;;0.80;;
21183;SDS011;18176;49.502;11.754;2024-02-23T11:35:06;7.40;;;2.40;;
21183;SDS011;18176;49.502;11.754;2024-02-23T11:39:30;2.77;;;1.50;;
21183;SDS011;18176;49.502;11.754;2024-02-23T11:43:52;2.30;;;1.00;;
21183;SDS011;18176;49.502;11.754;2024-02-23T11:48:15;4.73;;;1.80;;
21183;SDS011;18176;49.502;11.754;2024-02-23T11:52:39;3.00;;;1.20;;
21183;SDS011;18176;49.502;11.754;2024-02-23T11:57:03;3.67;;;1.37;;
21183;SDS011;18176;49.502;11.754;2024-02-23T12:01:24;3.77;;;1.27;;
21183;SDS011;18176;49.502;11.754;2024-02-23T12:05:45;4.90;;;2.00;;
21183;SDS011;18176;49.502;11.754;2024-02-23T12:10:11;2.37;;;1.20;;
21183;SDS011;18176;49.502;11.754;2024-02-23T12:14:34;2.87;;;1.20;;
21183;SDS011;18176;49.502;11.754;2024-02-23T12:18:56;2.23;;;0.90;;
21183;SDS011;18176;49.502;11.754;2024-02-23T12:23:16;1.57;;;1.00;;
21183;SDS011;18176;49.502;11.754;2024-02-23T12:27:37;3.33;;;1.20;;
21183;SDS011;18176;49.502;11.754;2024-02-23T12:32:06;2.53;;;1.50;;
21183;SDS011;18176;49.502;11.754;2024-02-23T12:36:28;2.93;;;1.40;;
21183;SDS011;18176;49.502;11.754;2024-02-23T12:40:53;3.80;;;0.97;;
21183;SDS011;18176;49.502;11.754;2024-02-23T12:45:14;1.93;;;0.90;;
21183;SDS011;18176;49.502;11.754;2024-02-23T12:49:38;2.63;;;1.40;;
21183;SDS011;18176;49.502;11.754;2024-02-23T12:54:01;5.90;;;0.90;;
21183;SDS011;18176;49.502;11.754;2024-02-23T12:58:22;2.53;;;1.30;;
21183;SDS011;18176;49.502;11.754;2024-02-23T13:02:43;2.33;;;1.20;;
21183;SDS011;18176;49.502;11.754;2024-02-23T13:07:06;4.23;;;1.30;;
21183;SDS011;18176;49.502;11.754;2024-02-23T13:11:27;3.23;;;1.67;;
21183;SDS011;18176;49.502;11.754;2024-02-23T13:15:48;4.87;;;1.63;;
21183;SDS011;18176;49.502;11.754;2024-02-23T13:20:13;3.10;;;1.60;;
21183;SDS011;18176;49.502;11.754;2024-02-23T13:24:38;3.37;;;1.17;;
21183;SDS011;18176;49.502;11.754;2024-02-23T13:28:59;2.87;;;1.20;;
21183;SDS011;18176;49.502;11.754;2024-02-23T13:33:20;4.37;;;1.73;;
21183;SDS011;18176;49.502;11.754;2024-02-23T13:37:42;2.33;;;1.30;;
21183;SDS011;18176;49.502;11.754;2024-02-23T13:42:07;3.63;;;1.40;;
21183;SDS011;18176;49.502;11.754;2024-02-23T13:46:28;2.50;;;1.30;;
21183;SDS011;18176;49.502;11.754;2024-02-23T13:50:48;3.93;;;1.33;;
21183;SDS011;18176;49.502;11.754;2024-02-23T13:55:10;2.60;;;1.60;;
21183;SDS011;18176;49.502;11.754;2024-02-23T13:59:33;4.70;;;1.57;;
21183;SDS011;18176;49.502;11.754;2024-02-23T14:03:54;3.77;;;1.60;;
21183;SDS011;18176;49.502;11.754;2024-02-23T14:08:15;2.90;;;1.63;;
21183;SDS011;18176;49.502;11.754;2024-02-23T14:12:36;2.70;;;1.37;;
21183;SDS011;18176;49.502;11.754;2024-02-23T14:17:00;4.13;;;2.03;;
21183;SDS011;18176;49.502;11.754;2024-02-23T14:21:21;3.03;;;2.10;;
21183;SDS011;18176;49.502;11.754;2024-02-23T14:25:42;3.97;;;1.50;;
21183;SDS011;18176;49.502;11.754;2024-02-23T14:30:03;3.13;;;1.77;;
21183;SDS011;18176;49.502;11.754;2024-02-23T14:34:29;4.60;;;1.90;;
21183;SDS011;18176;49.502;11.754;2024-02-23T14:38:50;7.50;;;1.80;;
21183;SDS011;18176;49.502;11.754;2024-02-23T14:43:11;2.27;;;1.70;;
21183;SDS011;18176;49.502;11.754;2024-02-23T14:47:32;2.40;;;1.50;;
21183;SDS011;18176;49.502;11.754;2024-02-23T14:52:04;5.57;;;1.60;;
21183;SDS011;18176;49.502;11.754;2024-02-23T14:56:25;5.23;;;2.40;;
21183;SDS011;18176;49.502;11.754;2024-02-23T15:00:46;5.13;;;1.30;;
21183;SDS011;18176;49.502;11.754;2024-02-23T15:05:07;4.30;;;2.07;;
21183;SDS011;18176;49.502;11.754;2024-02-23T15:09:31;7.10;;;2.10;;
21183;SDS011;18176;49.502;11.754;2024-02-23T15:13:54;4.83;;;1.40;;
21183;SDS011;18176;49.502;11.754;2024-02-23T15:18:17;2.90;;;1.30;;
21183;SDS011;18176;49.502;11.754;2024-02-23T15:22:38;3.93;;;1.37;;
21183;SDS011;18176;49.502;11.754;2024-02-23T15:27:02;1.93;;;1.37;;
21183;SDS011;18176;49.502;11.754;2024-02-23T15:31:23;2.47;;;1.60;;
21183;SDS011;18176;49.502;11.754;2024-02-23T15:35:44;5.63;;;2.70;;
21183;SDS011;18176;49.502;11.754;2024-02-23T15:40:05;4.57;;;2.37;;
21183;SDS011;18176;49.502;11.754;2024-02-23T15:44:30;4.50;;;2.67;;
21183;SDS011;18176;49.502;11.754;2024-02-23T15:48:51;6.20;;;2.63;;
21183;SDS011;18176;49.502;11.754;2024-02-23T15:53:12;2.97;;;1.30;;
21183;SDS011;18176;49.502;11.754;2024-02-23T15:57:33;4.47;;;2.27;;
21183;SDS011;18176;49.502;11.754;2024-02-23T16:01:56;5.20;;;2.60;;
21183;SDS011;18176;49.502;11.754;2024-02-23T16:06:19;6.03;;;2.50;;
21183;SDS011;18176;49.502;11.754;2024-02-23T16:10:42;4.40;;;2.00;;
21183;SDS011;18176;49.502;11.754;2024-02-23T16:15:04;4.40;;;2.37;;
21183;SDS011;18176;49.502;11.754;2024-02-23T16:19:29;3.50;;;1.77;;
21183;SDS011;18176;49.502;11.754;2024-02-23T16:23:50;4.17;;;1.33;;
21183;SDS011;18176;49.502;11.754;2024-02-23T16:28:10;4.10;;;1.67;;
21183;SDS011;18176;49.502;11.754;2024-02-23T16:32:31;5.50;;;2.80;;
21183;SDS011;18176;49.502;11.754;2024-02-23T16:36:55;3.67;;;1.80;;
21183;SDS011;18176;49.502;11.754;2024-02-23T16:41:15;2.87;;;1.63;;
21183;SDS011;18176;49.502;11.754;2024-02-23T16:45:37;4.87;;;1.67;;
21183;SDS011;18176;49.502;11.754;2024-02-23T16:49:58;7.70;;;2.10;;
21183;SDS011;18176;49.502;11.754;2024-02-23T16:54:21;2.90;;;1.87;;
21183;SDS011;18176;49.502;11.754;2024-02-23T16:58:42;4.60;;;2.43;;
21183;SDS011;18176;49.502;11.754;2024-02-23T17:03:03;8.00;;;3.43;;
21183;SDS011;18176;49.502;11.754;2024-02-23T17:07:25;8.70;;;2.30;;
21183;SDS011;18176;49.502;11.754;2024-02-23T17:11:50;11.20;;;3.67;;
21183;SDS011;18176;49.502;11.754;2024-02-23T17:16:11;5.60;;;3.40;;
21183;SDS011;18176;49.502;11.754;2024-02-23T17:20:32;20.33;;;7.90;;
21183;SDS011;18176;49.502;11.754;2024-02-23T17:24:53;7.40;;;4.07;;
21183;SDS011;18176;49.502;11.754;2024-02-23T17:29:17;6.07;;;3.77;;
21183;SDS011;18176;49.502;11.754;2024-02-23T17:33:37;11.20;;;4.10;;
21183;SDS011;18176;49.502;11.754;2024-02-23T17:37:58;19.17;;;8.13;;
21183;SDS011;18176;49.502;11.754;2024-02-23T17:42:20;12.97;;;5.53;;
21183;SDS011;18176;49.502;11.754;2024-02-23T17:46:43;22.57;;;9.47;;
21183;SDS011;18176;49.502;11.754;2024-02-23T17:51:05;20.30;;;9.00;;
21183;SDS011;18176;49.502;11.754;2024-02-23T17:55:26;11.73;;;6.50;;
21183;SDS011;18176;49.502;11.754;2024-02-23T17:59:47;16.50;;;8.07;;
21183;SDS011;18176;49.502;11.754;2024-02-23T18:04:10;14.33;;;7.63;;
21183;SDS011;18176;49.502;11.754;2024-02-23T18:08:31;17.07;;;9.63;;
21183;SDS011;18176;49.502;11.754;2024-02-23T18:12:53;10.90;;;6.20;;
21183;SDS011;18176;49.502;11.754;2024-02-23T18:17:14;35.73;;;18.00;;
21183;SDS011;18176;49.502;11.754;2024-02-23T18:21:38;17.83;;;9.23;;
21183;SDS011;18176;49.502;11.754;2024-02-23T18:25:58;11.20;;;6.07;;
21183;SDS011;18176;49.502;11.754;2024-02-23T18:30:19;10.20;;;5.20;;
21183;SDS011;18176;49.502;11.754;2024-02-23T18:34:40;14.27;;;5.77;;
21183;SDS011;18176;49.502;11.754;2024-02-23T18:39:07;11.30;;;6.10;;
21183;SDS011;18176;49.502;11.754;2024-02-23T18:43:28;14.10;;;7.20;;
21183;SDS011;18176;49.502;11.754;2024-02-23T18:47:50;10.50;;;6.07;;
21183;SDS011;18176;49.502;11.754;2024-02-23T18:52:11;13.77;;;6.67;;
21183;SDS011;18176;49.502;11.754;2024-02-23T18:56:34;17.90;;;8.00;;
21183;SDS011;18176;49.502;11.754;2024-02-23T19:00:55;15.97;;;7.10;;
21183;SDS011;18176;49.502;11.754;2024-02-23T19:05:16;10.90;;;4.60;;
21183;SDS011;18176;49.502;11.754;2024-02-23T19:09:36;7.27;;;3.97;;
21183;SDS011;18176;49.502;11.754;2024-02-23T19:14:00;7.17;;;4.57;;
21183;SDS011;18176;49.502;11.754;2024-02-23T19:18:21;5.67;;;2.50;;
21183;SDS011;18176;49.502;11.754;2024-02-23T19:22:42;8.03;;;3.60;;
21183;SDS011;18176;49.502;11.754;2024-02-23T19:27:02;8.00;;;4.03;;
21183;SDS011;18176;49.502;11.754;2024-02-23T19:31:26;8.07;;;4.13;;
21183;SDS011;18176;49.502;11.754;2024-02-23T19:35:47;5.57;;;3.03;;
21183;SDS011;18176;49.502;11.754;2024-02-23T19:40:08;6.83;;;2.80;;
21183;SDS011;18176;49.502;11.754;2024-02-23T19:44:31;9.37;;;5.27;;
21183;SDS011;18176;49.502;11.754;2024-02-23T19:48:54;9.47;;;4.33;;
21183;SDS011;18176;49.502;11.754;2024-02-23T19:53:16;7.13;;;3.77;;
21183;SDS011;18176;49.502;11.754;2024-02-23T19:57:37;7.83;;;3.57;;
21183;SDS011;18176;49.502;11.754;2024-02-23T20:01:57;5.70;;;3.30;;
21183;SDS011;18176;49.502;11.754;2024-02-23T20:06:21;4.83;;;2.70;;
21183;SDS011;18176;49.502;11.754;2024-02-23T20:10:41;6.73;;;3.70;;
21183;SDS011;18176;49.502;11.754;2024-02-23T20:15:03;5.07;;;3.10;;
21183;SDS011;18176;49.502;11.754;2024-02-23T20:19:25;3.70;;;2.67;;
21183;SDS011;18176;49.502;11.754;2024-02-23T20:23:48;6.13;;;3.30;;
21183;SDS011;18176;49.502;11.754;2024-02-23T20:28:09;37.03;;;15.10;;
21183;SDS011;18176;49.502;11.754;2024-02-23T20:32:30;12.03;;;7.00;;
21183;SDS011;18176;49.502;11.754;2024-02-23T20:36:51;5.60;;;3.00;;
21183;SDS011;18176;49.502;11.754;2024-02-23T20:41:14;4.17;;;2.07;;
21183;SDS011;18176;49.502;11.754;2024-02-23T20:45:35;6.10;;;2.20;;
21183;SDS011;18176;49.502;11.754;2024-02-23T20:49:57;2.10;;;1.33;;
21183;SDS011;18176;49.502;11.754;2024-02-23T20:54:18;2.20;;;1.53;;
21183;SDS011;18176;49.502;11.754;2024-02-23T20:58:41;2.33;;;1.63;;
21183;SDS011;18176;49.502;11.754;2024-02-23T21:03:02;5.13;;;1.80;;
21183;SDS011;18176;49.502;11.754;2024-02-23T21:07:24;3.20;;;2.27;;
21183;SDS011;18176;49.502;11.754;2024-02-23T21:11:44;4.87;;;1.93;;
21183;SDS011;18176;49.502;11.754;2024-02-23T21:16:08;4.87;;;3.10;;
21183;SDS011;18176;49.502;11.754;2024-02-23T21:20:29;6.03;;;4.30;;
21183;SDS011;18176;49.502;11.754;2024-02-23T21:24:49;3.13;;;1.83;;
21183;SDS011;18176;49.502;11.754;2024-02-23T21:29:10;2.10;;;1.40;;
21183;SDS011;18176;49.502;11.754;2024-02-23T21:33:35;3.00;;;2.10;;
21183;SDS011;18176;49.502;11.754;2024-02-23T21:37:55;3.43;;;2.20;;
21183;SDS011;18176;49.502;11.754;2024-02-23T21:42:16;3.87;;;1.97;;
21183;SDS011;18176;49.502;11.754;2024-02-23T21:46:37;5.07;;;1.80;;
21183;SDS011;18176;49.502;11.754;2024-02-23T21:51:00;2.30;;;1.50;;
21183;SDS011;18176;49.502;11.754;2024-02-23T21:55:21;2.60;;;1.63;;
21183;SDS011;18176;49.502;11.754;2024-02-23T21:59:43;2.87;;;1.90;;
21183;SDS011;18176;49.502;11.754;2024-02-23T22:04:05;2.57;;;1.53;;
21183;SDS011;18176;49.502;11.754;2024-02-23T22:08:28;4.57;;;2.57;;
21183;SDS011;18176;49.502;11.754;2024-02-23T22:12:49;4.67;;;2.53;;
21183;SDS011;18176;49.502;11.754;2024-02-23T22:17:09;4.27;;;2.03;;
21183;SDS011;18176;49.502;11.754;2024-02-23T22:21:30;3.13;;;1.87;;
21183;SDS011;18176;49.502;11.754;2024-02-23T22:25:54;4.80;;;2.50;;
21183;SDS011;18176;49.502;11.754;2024-02-23T22:30:15;2.37;;;1.90;;
21183;SDS011;18176;49.502;11.754;2024-02-23T22:34:39;6.93;;;2.20;;
21183;SDS011;18176;49.502;11.754;2024-02-23T22:39:00;4.47;;;2.80;;
21183;SDS011;18176;49.502;11.754;2024-02-23T22:43:23;4.23;;;2.97;;
21183;SDS011;18176;49.502;11.754;2024-02-23T22:47:44;5.37;;;2.30;;
21183;SDS011;18176;49.502;11.754;2024-02-23T22:52:05;4.47;;;2.40;;
21183;SDS011;18176;49.502;11.754;2024-02-23T22:56:26;5.40;;;2.40;;
21183;SDS011;18176;49.502;11.754;2024-02-23T23:00:50;3.57;;;2.37;;
21183;SDS011;18176;49.502;11.754;2024-02-23T23:05:11;5.03;;;2.70;;
21183;SDS011;18176;49.502;11.754;2024-02-23T23:09:33;8.13;;;3.90;;
21183;SDS011;18176;49.502;11.754;2024-02-23T23:13:54;4.30;;;2.73;;
21183;SDS011;18176;49.502;11.754;2024-02-23T23:18:18;4.33;;;2.90;;
21183;SDS011;18176;49.502;11.754;2024-02-23T23:22:39;6.67;;;3.30;;
21183;SDS011;18176;49.502;11.754;2024-02-23T23:27:00;5.37;;;2.63;;
21183;SDS011;18176;49.502;11.754;2024-02-23T23:31:20;6.13;;;2.13;;
21183;SDS011;18176;49.502;11.754;2024-02-23T23:35:44;3.97;;;2.07;;
21183;SDS011;18176;49.502;11.754;2024-02-23T23:40:06;3.13;;;2.20;;
21183;SDS011;18176;49.502;11.754;2024-02-23T23:44:28;3.23;;;1.90;;
21183;SDS011;18176;49.502;11.754;2024-02-23T23:48:49;2.57;;;1.70;;
21183;SDS011;18176;49.502;11.754;2024-02-23T23:53:13;3.17;;;2.00;;
21183;SDS011;18176;49.502;11.754;2024-02-23T23:57:34;4.47;;;2.00;;
